createdAt,value
2022-11-07T04:50:05.493Z,100466.72
2022-11-07T04:53:11.361Z,100462.50
2022-11-07T18:51:39.249Z,100773.78
2022-11-07T18:54:42.947Z,100777.47
2022-11-07T18:57:47.139Z,100773.91
2022-11-07T19:00:50.719Z,100778.22
2022-11-07T19:03:55.310Z,100779.66
2022-11-07T19:07:00.319Z,100778.81
2022-11-07T19:10:04.080Z,100774.88
2022-11-07T19:13:08.510Z,100781.56
2022-11-07T19:16:15.697Z,100788.78
2022-11-07T19:19:19.691Z,100787.72
2022-11-07T19:22:24.655Z,100786.50
2022-11-07T19:25:28.272Z,100788.19
2022-11-07T19:28:32.078Z,100785.19
2022-11-07T19:31:37.181Z,100790.47
2022-11-07T19:34:40.984Z,100784.69
2022-11-07T19:37:46.074Z,100793.81
2022-11-07T19:40:50.094Z,100792.13
2022-11-07T19:43:53.737Z,100796.44
2022-11-07T19:46:57.472Z,100791.66
2022-11-07T19:50:01.281Z,100798.63
2022-11-07T19:53:06.950Z,100798.38
2022-11-07T19:56:14.153Z,100787.22
2022-11-07T19:59:17.777Z,100790.72
2022-11-07T20:02:43.011Z,100792.50
2022-11-07T20:05:45.040Z,100796.81
2022-11-07T20:08:50.789Z,100790.81
2022-11-07T20:11:54.336Z,100792.13
2022-11-07T20:14:58.031Z,100800.31
2022-11-07T20:18:01.578Z,100798.63
2022-11-07T20:21:07.701Z,100794.06
2022-11-07T20:24:12.643Z,100798.28
2022-11-07T20:27:16.227Z,100797.16
2022-11-07T20:30:19.988Z,100796.91
2022-11-07T20:33:25.428Z,100803.66
2022-11-07T20:36:31.135Z,100794.63
2022-11-07T20:39:36.106Z,100810.13
2022-11-07T20:42:39.649Z,100804.53
2022-11-07T20:45:43.234Z,100806.31
2022-11-07T20:48:47.004Z,100804.78
2022-11-07T20:51:52.730Z,100805.19
2022-11-07T20:54:57.701Z,100809.28
2022-11-07T20:58:03.537Z,100809.53
2022-11-07T21:01:09.167Z,100813.03
2022-11-07T21:04:16.414Z,100811.53
2022-11-07T21:07:23.637Z,100812.88
2022-11-07T21:10:28.584Z,100809.84
2022-11-07T21:13:32.195Z,100809.97
2022-11-07T21:16:35.765Z,100809.84
2022-11-07T22:46:35.290Z,100793.13
2022-11-07T22:49:38.999Z,100792.03
2022-11-07T22:52:42.578Z,100791.22
